Time;durP1;ratioP1;P1;durP2;ratioP2;P2;SDS_P1;SDS_P2;PMS_P1;PMS_P2;Temp;Humidity;BMP_temperature;BMP_pressure;BME280_temperature;BME280_humidity;BME280_pressure;Samples;Min_cycle;Max_cycle;Signal;HPM_P1;HPM_P2
2023/03/29 00:01:32;;;;;;;9.27;4.25;;;;;;;10.94;54.27;101682.09;5103231;27;20370;-45
2023/03/29 00:03:57;;;;;;;8.60;4.07;;;;;;;11.07;54.17;101679.78;5105964;27;20077;-45
2023/03/29 00:06:22;;;;;;;10.40;4.47;;;;;;;10.73;55.14;101676.34;5107257;27;20070;-48
2023/03/29 00:08:50;;;;;;;7.63;3.90;;;;;;;10.99;54.26;101664.81;5103648;27;20432;-44
2023/03/29 00:11:16;;;;;;;7.45;4.10;;;;;;;10.76;54.90;101659.88;5106853;27;20401;-46
2023/03/29 00:13:42;;;;;;;8.65;4.00;;;;;;;11.00;54.66;101660.50;5103094;27;20055;-42
2023/03/29 00:16:08;;;;;;;9.05;4.38;;;;;;;11.05;54.48;101663.19;5107526;27;20092;-44
2023/03/29 00:18:33;;;;;;;7.85;4.18;;;;;;;11.01;54.87;101659.66;5109285;28;20032;-48
2023/03/29 00:20:59;;;;;;;10.00;4.47;;;;;;;10.91;55.17;101653.34;5113580;27;20030;-45
2023/03/29 00:23:24;;;;;;;11.75;4.38;;;;;;;11.01;54.82;101653.53;5109425;27;20028;-44
2023/03/29 00:25:52;;;;;;;9.73;3.95;;;;;;;10.65;55.85;101651.81;5106925;27;20044;-45
2023/03/29 00:28:17;;;;;;;10.05;4.15;;;;;;;10.91;55.22;101653.34;5113285;28;20163;-48
2023/03/29 00:30:43;;;;;;;9.85;4.40;;;;;;;10.93;55.68;101646.41;5105631;27;20048;-43
2023/03/29 00:33:08;;;;;;;9.70;4.20;;;;;;;11.16;55.30;101640.88;5108739;27;20043;-45
2023/03/29 00:35:33;;;;;;;8.15;4.45;;;;;;;10.95;55.60;101636.91;5108936;27;20040;-45
2023/03/29 00:37:59;;;;;;;9.65;4.40;;;;;;;11.10;55.37;101630.28;5112788;27;20304;-44
2023/03/29 00:40:24;;;;;;;9.70;4.40;;;;;;;10.57;57.08;101629.84;5108046;28;20443;-46
2023/03/29 00:42:50;;;;;;;8.07;4.40;;;;;;;11.01;55.66;101628.34;5101849;27;20077;-44
2023/03/29 00:45:21;;;;;;;8.65;4.20;;;;;;;11.02;55.81;101631.84;5104950;27;20497;-43
2023/03/29 00:47:52;;;;;;;8.77;4.53;;;;;;;10.84;56.50;101629.66;5098776;28;20031;-44
2023/03/29 00:50:21;;;;;;;8.00;4.55;;;;;;;11.07;55.95;101620.66;5105313;28;20028;-42
2023/03/29 00:52:55;;;;;;;8.02;4.70;;;;;;;11.20;55.60;101619.22;5101851;27;20071;-44
2023/03/29 00:55:23;;;;;;;9.40;4.47;;;;;;;11.12;55.63;101612.94;5105609;28;20435;-43
2023/03/29 00:57:50;;;;;;;9.63;4.10;;;;;;;11.21;55.64;101621.88;5102156;28;20047;-44
2023/03/29 01:00:19;;;;;;;9.80;4.80;;;;;;;11.12;55.71;101621.63;5106083;28;20039;-44
2023/03/29 01:02:49;;;;;;;8.07;4.57;;;;;;;11.18;55.80;101618.28;5101109;28;20028;-46
2023/03/29 01:05:21;;;;;;;12.70;4.88;;;;;;;11.04;55.80;101615.34;5104304;27;20024;-44
2023/03/29 01:07:56;;;;;;;8.88;4.65;;;;;;;11.25;55.05;101615.84;5100788;27;20045;-43
2023/03/29 01:10:46;;;;;;;10.82;4.78;;;;;;;11.32;54.90;101609.94;5105169;27;20036;-45
2023/03/29 01:13:18;;;;;;;8.55;4.20;;;;;;;11.17;54.97;101608.69;5102482;28;20027;-48
2023/03/29 01:15:44;;;;;;;10.13;4.32;;;;;;;11.15;55.72;101607.78;5102762;27;20040;-44
2023/03/29 01:18:10;;;;;;;9.57;4.80;;;;;;;11.37;54.71;101596.97;5105962;27;20034;-44
2023/03/29 01:20:44;;;;;;;8.90;4.72;;;;;;;11.44;54.97;101601.47;5090011;27;20035;-45
2023/03/29 01:23:25;;;;;;;8.43;4.28;;;;;;;11.44;54.40;101592.75;5104460;27;20035;-43
2023/03/29 01:26:12;;;;;;;7.82;4.50;;;;;;;11.26;54.99;101582.81;5100989;27;20043;-44
2023/03/29 01:28:46;;;;;;;13.77;4.75;;;;;;;11.20;55.54;101585.28;5101671;27;20123;-43
2023/03/29 01:31:35;;;;;;;9.18;4.70;;;;;;;11.01;56.22;101585.72;5104007;28;20515;-47
2023/03/29 01:34:09;;;;;;;13.88;4.68;;;;;;;11.40;55.12;101577.00;5100726;27;20039;-46
2023/03/29 01:36:59;;;;;;;8.70;4.40;;;;;;;11.42;54.94;101577.06;5101389;27;20313;-43
2023/03/29 01:39:24;;;;;;;8.70;4.80;;;;;;;11.35;55.45;101585.59;5104603;27;20070;-45
2023/03/29 01:42:14;;;;;;;9.43;4.43;;;;;;;11.36;55.28;101569.09;5100616;27;20059;-46
2023/03/29 01:45:06;;;;;;;9.25;5.05;;;;;;;11.49;55.02;101571.13;5101342;28;20036;-44
2023/03/29 01:47:58;;;;;;;10.30;4.97;;;;;;;11.46;55.05;101572.78;5102562;27;20181;-57
2023/03/29 01:50:39;;;;;;;9.23;4.72;;;;;;;11.57;54.65;101572.16;5102410;27;20069;-45
2023/03/29 01:53:16;;;;;;;8.90;4.50;;;;;;;11.48;55.69;101571.06;5100732;27;20032;-46
2023/03/29 01:55:48;;;;;;;11.60;5.10;;;;;;;11.51;55.49;101569.44;5100734;28;20118;-47
2023/03/29 01:58:16;;;;;;;11.27;5.20;;;;;;;11.53;55.78;101565.09;5104604;27;20381;-47
2023/03/29 02:00:44;;;;;;;12.55;4.70;;;;;;;11.51;55.79;101566.81;5100550;27;20039;-47
2023/03/29 02:03:13;;;;;;;10.05;4.53;;;;;;;11.71;55.42;101567.22;5104671;27;20072;-44
2023/03/29 02:05:41;;;;;;;10.57;5.03;;;;;;;11.70;55.50;101563.72;5101628;27;20063;-45
2023/03/29 02:08:09;;;;;;;11.07;4.88;;;;;;;11.73;55.55;101562.88;5104849;27;20023;-48
2023/03/29 02:10:35;;;;;;;9.73;4.80;;;;;;;11.66;56.07;101556.66;5099844;27;20034;-47
2023/03/29 02:13:01;;;;;;;8.57;4.85;;;;;;;11.66;55.87;101555.78;5103429;28;20575;-48
2023/03/29 02:15:26;;;;;;;9.73;5.05;;;;;;;11.68;56.10;101554.09;5103626;27;20027;-42
2023/03/29 02:17:52;;;;;;;10.20;4.97;;;;;;;11.77;55.62;101544.72;5100187;28;20114;-45
2023/03/29 02:20:28;;;;;;;10.32;4.95;;;;;;;11.58;56.29;101550.44;5102897;28;20046;-45
2023/03/29 02:23:03;;;;;;;10.25;5.10;;;;;;;11.70;56.22;101541.94;5100749;28;20088;-44
2023/03/29 02:25:29;;;;;;;13.30;5.32;;;;;;;11.61;56.36;101536.53;5105004;28;20111;-44
2023/03/29 02:27:55;;;;;;;13.77;5.38;;;;;;;11.64;56.34;101539.22;5100201;28;20035;-44
2023/03/29 02:30:24;;;;;;;10.55;5.10;;;;;;;11.70;56.50;101535.00;5104346;27;20554;-44
2023/03/29 02:32:58;;;;;;;9.40;5.35;;;;;;;11.70;56.76;101536.72;5100785;28;20066;-47
2023/03/29 02:35:33;;;;;;;9.05;4.93;;;;;;;11.71;56.40;101528.88;5103812;28;20028;-46
2023/03/29 02:38:03;;;;;;;10.57;5.28;;;;;;;11.72;56.73;101521.94;5101166;27;20108;-45
2023/03/29 02:40:29;;;;;;;10.43;5.30;;;;;;;11.74;56.50;101522.91;5107588;27;20040;-45
2023/03/29 02:42:56;;;;;;;11.50;5.38;;;;;;;11.53;57.48;101525.03;5108122;27;20027;-46
2023/03/29 02:45:24;;;;;;;8.90;4.93;;;;;;;11.64;57.18;101513.97;5106808;28;20035;-46
2023/03/29 02:47:54;;;;;;;10.35;5.50;;;;;;;11.75;56.94;101512.47;5100774;27;20040;-44
2023/03/29 02:50:20;;;;;;;8.90;5.07;;;;;;;11.73;56.95;101513.25;5103371;28;20543;-47
2023/03/29 02:52:53;;;;;;;10.80;5.30;;;;;;;11.59;57.30;101509.50;5099805;27;20040;-44
2023/03/29 02:55:23;;;;;;;10.70;5.43;;;;;;;11.77;56.99;101510.75;5103349;28;20050;-43
2023/03/29 02:57:48;;;;;;;12.07;5.47;;;;;;;11.71;56.95;101513.22;5100197;28;20043;-45
2023/03/29 03:00:18;;;;;;;11.43;5.07;;;;;;;11.76;57.13;101505.53;5103554;28;20039;-44
2023/03/29 03:02:45;;;;;;;9.30;5.30;;;;;;;11.77;57.29;101504.69;5099626;28;20039;-44
2023/03/29 03:05:11;;;;;;;11.50;5.45;;;;;;;11.81;57.03;101506.50;5102740;28;20394;-45
2023/03/29 03:07:39;;;;;;;8.82;5.20;;;;;;;11.70;57.44;101508.88;5099875;28;20043;-43
2023/03/29 03:10:06;;;;;;;11.10;5.38;;;;;;;11.67;57.16;101502.69;5102133;28;20024;-44
2023/03/29 03:12:31;;;;;;;11.35;5.88;;;;;;;11.79;57.52;101502.97;5098972;28;20473;-55
2023/03/29 03:14:57;;;;;;;11.77;5.53;;;;;;;11.81;57.33;101496.03;5103341;28;20063;-44
2023/03/29 03:17:23;;;;;;;9.68;5.75;;;;;;;11.75;57.14;101498.53;5102757;28;20088;-43
2023/03/29 03:19:48;;;;;;;12.27;5.82;;;;;;;11.82;57.21;101489.97;5098623;28;20529;-44
2023/03/29 03:22:14;;;;;;;11.43;5.90;;;;;;;11.85;57.14;101489.13;5102743;28;20036;-48
2023/03/29 03:24:39;;;;;;;10.63;6.18;;;;;;;11.83;56.97;101488.25;5100171;28;20058;-44
2023/03/29 03:27:05;;;;;;;11.27;5.80;;;;;;;11.72;57.37;101486.25;5103738;28;20498;-47
2023/03/29 03:29:30;;;;;;;12.15;5.93;;;;;;;11.75;57.67;101482.88;5103838;28;20067;-47
2023/03/29 03:31:55;;;;;;;9.60;6.00;;;;;;;11.85;57.50;101492.63;5102560;28;20028;-43
2023/03/29 03:34:21;;;;;;;11.82;6.05;;;;;;;11.70;57.75;101492.31;5105336;28;20027;-47
2023/03/29 03:36:46;;;;;;;10.68;5.80;;;;;;;11.89;57.45;101490.97;5104300;28;20146;-49
2023/03/29 03:39:13;;;;;;;11.98;5.95;;;;;;;11.72;57.48;101491.47;5108667;28;20091;-43
2023/03/29 03:41:38;;;;;;;13.73;6.10;;;;;;;11.82;57.54;101492.59;5101948;28;20085;-45
2023/03/29 03:44:04;;;;;;;13.10;6.18;;;;;;;11.94;57.51;101489.31;5106849;28;20148;-43
2023/03/29 03:46:29;;;;;;;11.13;6.15;;;;;;;11.94;57.43;101486.69;5106450;28;20020;-43
2023/03/29 03:48:55;;;;;;;18.50;6.28;;;;;;;11.96;57.30;101485.84;5100072;28;20114;-45
2023/03/29 03:51:21;;;;;;;11.30;6.43;;;;;;;11.92;57.51;101485.78;5102348;28;20062;-45
2023/03/29 03:53:46;;;;;;;12.38;6.38;;;;;;;11.85;57.61;101486.50;5098812;28;20031;-44
2023/03/29 03:56:12;;;;;;;14.27;6.57;;;;;;;11.81;57.73;101485.59;5101744;28;20089;-47
2023/03/29 03:58:38;;;;;;;12.73;6.35;;;;;;;11.76;57.78;101484.63;5103621;28;20040;-43
2023/03/29 04:01:04;;;;;;;11.07;6.45;;;;;;;11.86;57.85;101488.28;5108382;28;20032;-43
2023/03/29 04:03:30;;;;;;;13.57;6.15;;;;;;;11.96;58.00;101490.19;5104864;28;20039;-46
2023/03/29 04:05:59;;;;;;;13.05;6.60;;;;;;;12.07;57.32;101481.72;5099362;28;20047;-47
2023/03/29 04:08:24;;;;;;;11.13;6.63;;;;;;;12.00;57.62;101482.44;5102999;28;20070;-47
2023/03/29 04:10:54;;;;;;;13.68;6.72;;;;;;;11.85;58.18;101469.09;5098537;28;20051;-43
2023/03/29 04:13:21;;;;;;;10.90;6.28;;;;;;;11.92;58.05;101470.09;5103535;28;20054;-44
2023/03/29 04:15:48;;;;;;;11.70;6.70;;;;;;;11.87;58.03;101470.03;5105598;28;20040;-48
2023/03/29 04:18:14;;;;;;;10.90;6.57;;;;;;;11.86;58.21;101456.91;5109692;28;20034;-42
2023/03/29 04:20:40;;;;;;;14.70;6.65;;;;;;;11.94;58.12;101455.34;5101342;28;20035;-43
2023/03/29 04:23:05;;;;;;;12.10;7.03;;;;;;;12.06;57.76;101455.53;5108625;27;20091;-42
2023/03/29 04:25:31;;;;;;;12.75;7.38;;;;;;;11.79;58.63;101459.44;5110348;28;20141;-47
2023/03/29 04:27:56;;;;;;;10.23;6.75;;;;;;;12.18;57.29;101458.34;5108627;27;20042;-45
2023/03/29 04:30:22;;;;;;;14.43;7.28;;;;;;;11.93;57.98;101446.63;5109274;27;20035;-44
2023/03/29 04:32:47;;;;;;;10.82;6.75;;;;;;;11.86;58.46;101444.75;5101689;27;20489;-46
2023/03/29 04:35:12;;;;;;;12.23;6.93;;;;;;;11.83;57.95;101439.47;5105144;27;20216;-43
2023/03/29 04:37:39;;;;;;;12.48;6.93;;;;;;;12.14;57.83;101446.94;5102389;28;20493;-42
2023/03/29 04:40:08;;;;;;;12.68;6.82;;;;;;;12.04;58.28;101439.81;5104776;28;20405;-45
2023/03/29 04:42:34;;;;;;;13.85;7.03;;;;;;;12.17;57.60;101447.00;5101915;28;20031;-44
2023/03/29 04:44:59;;;;;;;13.00;7.25;;;;;;;12.02;58.45;101445.88;5105478;27;20541;-43
2023/03/29 04:47:28;;;;;;;14.30;7.40;;;;;;;11.81;59.05;101442.91;5105866;27;20040;-44
2023/03/29 04:49:54;;;;;;;13.23;7.28;;;;;;;11.99;58.61;101435.38;5100336;27;20028;-45
2023/03/29 04:52:19;;;;;;;15.20;7.78;;;;;;;12.15;58.28;101432.16;5105605;27;20023;-44
2023/03/29 04:54:45;;;;;;;12.80;6.90;;;;;;;12.26;58.21;101438.41;5101556;27;20697;-45
2023/03/29 04:57:10;;;;;;;12.48;7.20;;;;;;;12.08;58.75;101440.75;5105919;27;20127;-45
2023/03/29 04:59:36;;;;;;;13.45;7.57;;;;;;;12.24;58.10;101441.88;5101344;27;20032;-43
2023/03/29 05:02:03;;;;;;;12.30;7.32;;;;;;;12.18;58.46;101440.94;5104549;27;20070;-42
2023/03/29 05:04:29;;;;;;;11.73;7.30;;;;;;;12.35;57.78;101442.91;5104618;27;20024;-49
2023/03/29 05:06:56;;;;;;;12.70;7.40;;;;;;;12.27;58.14;101444.53;5100819;27;20482;-48
2023/03/29 05:09:22;;;;;;;10.98;7.20;;;;;;;12.17;58.67;101443.50;5104148;27;20031;-45
2023/03/29 05:11:47;;;;;;;11.45;6.97;;;;;;;12.34;58.38;101443.78;5100398;27;20028;-51
2023/03/29 05:14:13;;;;;;;14.18;7.45;;;;;;;12.29;58.46;101458.50;5104513;28;20047;-45
2023/03/29 05:16:39;;;;;;;11.77;7.28;;;;;;;12.20;59.33;101461.84;5101386;27;20039;-45
2023/03/29 05:19:04;;;;;;;15.88;7.40;;;;;;;12.04;59.58;101460.72;5104644;28;20063;-47
2023/03/29 05:21:30;;;;;;;12.65;7.03;;;;;;;12.17;59.00;101467.91;5105014;27;20055;-45
2023/03/29 05:23:55;;;;;;;12.82;6.80;;;;;;;12.08;59.08;101459.91;5099906;28;20036;-45
2023/03/29 05:26:21;;;;;;;15.15;7.13;;;;;;;12.21;59.22;101458.38;5105536;27;20065;-44
2023/03/29 05:28:50;;;;;;;12.05;7.20;;;;;;;12.23;59.18;101459.31;5099927;27;20055;-43
2023/03/29 05:31:16;;;;;;;13.10;7.07;;;;;;;12.29;58.78;101454.16;5105508;27;20413;-41
2023/03/29 05:33:41;;;;;;;14.52;7.72;;;;;;;12.26;59.42;101448.88;5101638;28;20036;-43
2023/03/29 05:36:09;;;;;;;17.77;7.72;;;;;;;12.18;60.24;101450.50;5105372;28;20034;-43
2023/03/29 05:38:35;;;;;;;14.02;7.60;;;;;;;12.17;59.74;101449.63;5100868;27;20063;-43
2023/03/29 05:41:01;;;;;;;13.23;7.60;;;;;;;12.38;59.36;101458.66;5103141;22;20542;-80
2023/03/29 05:43:27;;;;;;;18.85;7.90;;;;;;;12.34;59.80;101462.06;5087013;28;20101;-80
2023/03/29 05:45:53;;;;;;;13.32;7.38;;;;;;;12.35;59.81;101459.50;5081146;28;20051;-82
2023/03/29 05:48:31;;;;;;;16.00;7.75;;;;;;;12.08;60.93;101459.91;5087092;28;20078;-82
2023/03/29 05:51:11;;;;;;;17.83;7.78;;;;;;;12.45;60.02;101473.56;5061275;28;20727;-80
2023/03/29 05:53:37;;;;;;;15.88;7.35;;;;;;;12.17;60.89;101467.91;5065642;28;20053;-81
2023/03/29 05:56:02;;;;;;;13.75;7.57;;;;;;;12.40;60.32;101459.56;5093741;22;20406;-39
2023/03/29 05:58:29;;;;;;;12.43;7.30;;;;;;;12.47;60.36;101456.19;5083456;28;20040;-39
2023/03/29 06:00:55;;;;;;;15.38;7.75;;;;;;;12.41;60.45;101459.59;5085372;28;20035;-40
2023/03/29 06:03:24;;;;;;;13.88;7.60;;;;;;;12.19;61.08;101461.00;5101666;27;20035;-40
2023/03/29 06:06:04;;;;;;;14.25;7.50;;;;;;;12.66;60.11;101459.94;5097644;28;20382;-41
2023/03/29 06:08:35;;;;;;;14.60;7.53;;;;;;;12.73;59.80;101460.06;5101515;22;20040;-76
2023/03/29 06:11:09;;;;;;;13.48;7.43;;;;;;;12.69;60.26;101463.47;5058985;28;20020;-76
2023/03/29 06:13:37;;;;;;;24.48;8.00;;;;;;;12.65;60.21;101456.44;5075398;28;20515;-74
2023/03/29 06:16:06;;;;;;;11.85;7.45;;;;;;;12.69;60.51;101454.75;5074012;28;20048;-74
2023/03/29 06:18:32;;;;;;;16.17;7.47;;;;;;;12.82;60.08;101454.94;5072560;28;20032;-74
2023/03/29 06:21:03;;;;;;;16.90;7.78;;;;;;;12.68;60.52;101455.63;5096209;28;20054;-74
2023/03/29 06:23:29;;;;;;;16.42;8.40;;;;;;;12.48;61.03;101461.44;5098505;28;20028;-75
2023/03/29 06:25:55;;;;;;;13.63;7.75;;;;;;;12.50;61.14;101458.84;5057663;28;20050;-74
2023/03/29 06:28:26;;;;;;;14.70;7.60;;;;;;;12.55;61.11;101465.91;5080319;28;20050;-75
2023/03/29 06:31:00;;;;;;;15.68;7.72;;;;;;;12.65;61.15;101456.44;5075814;28;20039;-74
2023/03/29 06:33:26;;;;;;;17.17;7.90;;;;;;;12.66;61.49;101462.56;5100284;28;20392;-74
2023/03/29 06:35:52;;;;;;;16.23;8.00;;;;;;;12.99;60.47;101461.25;5094592;28;22267;-74
2023/03/29 06:38:18;;;;;;;13.43;7.85;;;;;;;13.14;60.21;101459.75;5100624;28;20423;-76
2023/03/29 06:40:47;;;;;;;16.50;8.20;;;;;;;13.01;60.51;101461.28;5077783;28;20519;-74
2023/03/29 06:43:27;;;;;;;18.17;8.18;;;;;;;13.16;60.31;101455.41;5082406;28;20042;-76
2023/03/29 06:45:53;;;;;;;18.17;8.13;;;;;;;12.82;61.33;101462.78;5093818;28;20043;-77
2023/03/29 06:48:21;;;;;;;15.55;7.97;;;;;;;13.11;60.86;101464.91;5098312;28;20031;-75
2023/03/29 06:50:48;;;;;;;16.20;8.73;;;;;;;12.80;62.19;101469.75;5090746;28;20404;-75
2023/03/29 06:53:20;;;;;;;15.20;8.57;;;;;;;12.79;62.21;101469.72;5100962;28;20062;-76
2023/03/29 06:55:46;;;;;;;18.05;8.68;;;;;;;13.15;61.37;101480.72;5071313;28;20032;-74
2023/03/29 06:58:11;;;;;;;16.92;8.57;;;;;;;12.77;62.48;101485.41;5097254;28;20031;-75
2023/03/29 07:00:38;;;;;;;16.88;8.43;;;;;;;12.97;62.18;101483.94;5097173;28;20031;-76
2023/03/29 07:03:06;;;;;;;17.58;8.50;;;;;;;13.27;61.32;101491.34;5081593;28;20039;-76
2023/03/29 07:05:35;;;;;;;20.05;8.73;;;;;;;13.27;61.17;101482.59;5099084;28;20044;-80
2023/03/29 07:10:31;;;;;;;17.48;8.60;;;;;;;13.56;60.98;101489.03;5099472;28;20404;-74
2023/03/29 07:13:12;;;;;;;17.08;8.82;;;;;;;13.66;60.73;101492.66;5095512;28;20030;-73
2023/03/29 07:15:42;;;;;;;16.20;9.00;;;;;;;13.63;60.88;101492.59;5061494;28;20485;-76
2023/03/29 07:18:17;;;;;;;18.38;9.32;;;;;;;13.28;61.32;101490.47;5057161;28;20024;-75
2023/03/29 07:20:47;;;;;;;18.50;9.48;;;;;;;13.44;61.73;101488.91;5051549;28;20595;-78
2023/03/29 07:23:12;;;;;;;21.05;10.15;;;;;;;13.43;61.38;101486.25;5065868;28;20086;-77
2023/03/29 07:25:38;;;;;;;18.15;9.50;;;;;;;13.56;61.84;101489.03;5054040;28;20478;-75
2023/03/29 07:28:06;;;;;;;20.90;9.80;;;;;;;13.57;62.02;101490.81;5056805;28;20033;-74
2023/03/29 07:30:32;;;;;;;20.05;9.85;;;;;;;13.60;61.87;101495.22;5031660;28;20085;-77
2023/03/29 07:33:13;;;;;;;21.00;9.70;;;;;;;13.70;61.84;101499.69;5077459;28;20366;-75
2023/03/29 07:35:38;;;;;;;20.45;9.93;;;;;;;13.64;62.01;101500.50;5057430;28;20040;-75
2023/03/29 07:38:04;;;;;;;20.20;9.70;;;;;;;13.86;61.50;101493.72;5068505;28;20028;-74
2023/03/29 07:40:30;;;;;;;18.48;9.70;;;;;;;13.95;61.46;101498.19;5080304;28;20068;-75
2023/03/29 07:43:07;;;;;;;;;;;;;;;;;;;;;
2023/03/29 07:45:32;;;;;;;19.27;10.18;;;;;;;14.16;60.91;101486.13;5093334;28;20506;-76
2023/03/29 07:47:58;;;;;;;22.15;11.27;;;;;;;13.87;62.08;101489.34;5097828;28;21317;-76
2023/03/29 07:50:27;;;;;;;20.50;10.60;;;;;;;14.20;61.31;101495.81;5099160;28;20023;-77
2023/03/29 07:52:52;;;;;;;20.60;10.48;;;;;;;14.21;61.52;101492.28;5076986;28;20091;-75
2023/03/29 07:55:27;;;;;;;20.08;10.60;;;;;;;14.42;60.92;101489.00;5091152;28;20023;-75
2023/03/29 07:57:56;;;;;;;22.75;11.40;;;;;;;13.76;62.46;101495.38;5090698;28;20115;-74
2023/03/29 08:00:24;;;;;;;22.25;10.75;;;;;;;14.14;61.80;101494.88;5090412;28;20065;-75
2023/03/29 08:02:51;;;;;;;20.10;11.07;;;;;;;14.52;61.11;101490.81;5098126;28;20047;-77
2023/03/29 08:05:17;;;;;;;23.73;10.75;;;;;;;14.46;60.69;101487.25;5102854;28;20032;-76
2023/03/29 08:07:44;;;;;;;20.02;11.07;;;;;;;13.72;63.39;101490.94;5098927;28;20093;-77
2023/03/29 08:10:25;;;;;;;25.45;11.20;;;;;;;13.76;63.55;101492.75;5094041;28;20031;-74
2023/03/29 08:12:54;;;;;;;22.00;11.00;;;;;;;14.30;62.37;101486.25;5077818;28;20162;-76
2023/03/29 08:15:22;;;;;;;28.60;11.25;;;;;;;14.33;61.70;101485.41;5082439;28;20031;-78
2023/03/29 08:17:50;;;;;;;24.30;11.63;;;;;;;14.90;60.59;101479.69;5078970;28;20044;-75
2023/03/29 08:20:19;;;;;;;25.85;12.48;;;;;;;14.74;60.93;101469.97;5054929;28;20038;-76
2023/03/29 08:22:44;;;;;;;27.02;11.43;;;;;;;14.36;61.70;101480.16;5088509;28;20043;-76
2023/03/29 08:25:13;;;;;;;23.70;11.88;;;;;;;14.99;60.73;101479.75;5083600;28;20036;-74
2023/03/29 08:27:41;;;;;;;27.73;12.38;;;;;;;14.82;61.22;101482.25;5080139;28;20105;-75
2023/03/29 08:30:13;;;;;;;26.73;12.85;;;;;;;14.77;61.77;101480.47;5092763;28;20053;-77
2023/03/29 08:32:48;;;;;;;26.70;12.57;;;;;;;14.69;62.21;101467.34;5072441;28;20442;-76
2023/03/29 08:35:20;;;;;;;25.00;12.55;;;;;;;15.22;60.46;101464.06;5091118;28;20028;-76
2023/03/29 08:37:45;;;;;;;29.17;13.38;;;;;;;15.05;60.12;101463.13;5087485;28;20586;-75
2023/03/29 08:40:31;;;;;;;27.50;13.27;;;;;;;14.83;62.09;101473.50;5076688;28;20036;-76
2023/03/29 08:43:22;;;;;;;29.20;13.68;;;;;;;14.78;62.06;101467.38;5067143;28;20028;-76
2023/03/29 08:45:58;;;;;;;26.02;13.82;;;;;;;15.37;60.96;101480.75;5069722;28;20036;-75
2023/03/29 08:48:41;;;;;;;28.02;12.38;;;;;;;15.84;59.34;101487.94;5098537;28;20123;-74
2023/03/29 08:51:26;;;;;;;26.95;13.57;;;;;;;15.69;59.55;101486.13;5085176;28;20507;-75
2023/03/29 08:54:05;;;;;;;26.17;13.95;;;;;;;15.23;60.96;101473.72;5091014;28;22452;-75
2023/03/29 08:56:35;;;;;;;28.02;13.45;;;;;;;15.30;61.33;101468.50;5077897;28;20032;-74
2023/03/29 08:59:01;;;;;;;30.88;14.18;;;;;;;14.69;62.20;101469.97;5039605;28;20036;-75
2023/03/29 09:01:32;;;;;;;30.60;15.07;;;;;;;14.39;63.77;101478.50;5081277;28;20143;-75
2023/03/29 09:04:29;;;;;;;29.85;14.93;;;;;;;14.45;64.33;101481.16;5075457;28;20060;-73
2023/03/29 09:07:10;;;;;;;28.25;14.80;;;;;;;14.59;63.94;101482.13;5078396;28;20032;-75
2023/03/29 09:09:41;;;;;;;26.35;14.27;;;;;;;14.82;63.47;101476.16;5070508;28;20136;-76
2023/03/29 09:12:34;;;;;;;29.02;14.30;;;;;;;14.54;63.17;101475.09;5073893;28;20055;-75
2023/03/29 09:15:22;;;;;;;31.42;14.18;;;;;;;15.05;61.98;101473.63;5097545;28;20726;-75
2023/03/29 09:18:10;;;;;;;24.08;13.63;;;;;;;15.47;62.03;101467.66;5087378;28;20090;-75
2023/03/29 09:20:55;;;;;;;25.92;13.77;;;;;;;15.63;60.24;101480.88;5101965;28;20050;-77
2023/03/29 09:23:37;;;;;;;29.60;14.18;;;;;;;15.40;61.47;101483.41;5105298;28;20488;-76
2023/03/29 09:26:52;;;;;;;26.08;13.75;;;;;;;15.79;60.11;101473.91;5070290;28;20046;-74
2023/03/29 09:29:36;;;;;;;24.67;13.50;;;;;;;14.90;62.83;101480.56;5078992;28;20024;-75
2023/03/29 09:32:11;;;;;;;24.10;13.23;;;;;;;14.54;64.67;101490.84;5097202;28;20038;-74
2023/03/29 09:35:07;;;;;;;22.23;13.73;;;;;;;14.83;63.29;101485.75;5097241;28;20027;-75
2023/03/29 09:37:37;;;;;;;23.10;12.82;;;;;;;14.59;64.67;101492.63;5041469;28;20046;-74
2023/03/29 09:40:26;;;;;;;24.95;13.40;;;;;;;15.01;63.63;101499.00;5079748;28;20044;-76
2023/03/29 09:42:53;;;;;;;25.58;14.32;;;;;;;15.03;63.57;101494.63;5047221;28;20644;-75
2023/03/29 09:45:25;;;;;;;22.05;13.20;;;;;;;14.89;63.46;101491.91;5030602;28;20028;-76
2023/03/29 09:48:10;;;;;;;22.83;12.93;;;;;;;14.79;64.05;101487.50;5056001;28;20084;-75
2023/03/29 09:50:40;;;;;;;22.60;13.02;;;;;;;14.79;64.14;101484.88;5064024;28;20084;-77
2023/03/29 09:53:17;;;;;;;22.38;12.50;;;;;;;14.99;63.51;101475.38;5055759;28;20488;-73
2023/03/29 09:55:49;;;;;;;22.80;13.27;;;;;;;14.99;63.42;101480.63;4996559;28;20504;-74
2023/03/29 09:58:30;;;;;;;21.83;12.75;;;;;;;15.72;61.92;101475.66;5066081;28;20028;-74
2023/03/29 10:01:09;;;;;;;22.33;12.73;;;;;;;16.06;61.27;101484.44;5033936;28;20032;-76
2023/03/29 10:04:05;;;;;;;20.60;12.35;;;;;;;15.59;61.78;101472.97;5039554;28;20032;-73
2023/03/29 10:06:42;;;;;;;23.17;12.73;;;;;;;15.12;63.59;101470.16;5038844;28;20177;-76
2023/03/29 10:09:21;;;;;;;24.13;13.48;;;;;;;15.06;63.87;101470.16;4992998;28;20548;-75
2023/03/29 10:12:03;;;;;;;21.25;14.05;;;;;;;14.55;65.45;101476.84;4977613;28;20523;-75
2023/03/29 10:14:28;;;;;;;23.48;14.35;;;;;;;15.20;65.06;101471.06;4964748;28;20036;-76
2023/03/29 10:16:56;;;;;;;20.58;12.48;;;;;;;15.59;63.54;101476.50;4942635;28;20048;-75
2023/03/29 10:19:33;;;;;;;20.67;12.00;;;;;;;15.58;63.35;101473.84;5026415;28;20036;-74
2023/03/29 10:22:13;;;;;;;19.20;12.63;;;;;;;15.37;63.38;101472.00;5078060;28;20024;-74
2023/03/29 10:24:46;;;;;;;18.05;12.40;;;;;;;15.33;63.80;101464.97;5077582;28;20039;-73
2023/03/29 10:27:12;;;;;;;24.43;13.53;;;;;;;15.03;64.75;101463.13;5069669;28;20027;-74
2023/03/29 10:29:47;;;;;;;21.13;13.27;;;;;;;15.11;64.91;101447.41;5058824;28;20028;-75
2023/03/29 10:32:27;;;;;;;20.88;13.10;;;;;;;15.84;63.17;101453.75;5083797;28;20028;-76
2023/03/29 10:34:53;;;;;;;21.88;13.80;;;;;;;16.07;62.05;101448.50;5077325;28;20043;-74
2023/03/29 10:37:20;;;;;;;23.00;14.13;;;;;;;16.25;62.08;101440.59;5069553;28;20039;-74
2023/03/29 10:39:49;;;;;;;22.30;14.25;;;;;;;16.05;62.48;101444.97;5071170;28;20408;-74
2023/03/29 10:42:22;;;;;;;19.25;13.60;;;;;;;16.33;61.15;101436.22;5087537;28;20095;-74
2023/03/29 10:45:19;;;;;;;21.23;14.40;;;;;;;15.09;65.13;101444.75;5072646;28;20028;-74
2023/03/29 10:47:56;;;;;;;23.27;15.32;;;;;;;15.67;64.22;101434.47;5054157;28;20044;-74
2023/03/29 10:50:25;;;;;;;26.05;17.52;;;;;;;15.00;65.34;101431.63;5059626;28;20032;-74
2023/03/29 10:52:50;;;;;;;27.30;18.33;;;;;;;15.69;63.53;101424.81;5077589;28;20124;-75
2023/03/29 10:55:16;;;;;;;28.48;17.88;;;;;;;15.87;62.50;101416.94;5080551;28;20500;-77
2023/03/29 10:58:00;;;;;;;28.13;18.27;;;;;;;16.22;62.10;101415.16;5077757;28;20035;-73
2023/03/29 11:00:41;;;;;;;28.73;18.52;;;;;;;16.35;61.57;101410.75;5079065;28;20081;-75
2023/03/29 11:03:49;;;;;;;28.77;18.60;;;;;;;16.53;61.07;101430.91;5076538;28;20036;-75
2023/03/29 11:06:51;;;;;;;29.30;18.55;;;;;;;16.93;59.75;101424.69;5077069;28;20028;-76
2023/03/29 11:09:36;;;;;;;29.63;19.65;;;;;;;16.56;60.53;101426.53;5065287;28;20055;-74
2023/03/29 11:12:25;;;;;;;32.55;18.98;;;;;;;16.24;61.78;101441.47;5077230;28;20032;-73
2023/03/29 11:15:08;;;;;;;31.42;19.73;;;;;;;16.50;61.06;101437.06;5075227;28;20036;-74
2023/03/29 11:17:49;;;;;;;32.83;19.88;;;;;;;16.59;60.23;101439.69;5075263;28;20036;-74
2023/03/29 11:20:49;;;;;;;28.33;18.45;;;;;;;15.44;62.62;101443.13;5079505;28;20543;-75
2023/03/29 11:23:51;;;;;;;28.38;18.48;;;;;;;15.79;62.26;101448.50;5074203;28;20051;-74
2023/03/29 11:26:27;;;;;;;28.88;18.70;;;;;;;15.45;63.57;101454.50;5075097;28;20518;-75
2023/03/29 11:29:01;;;;;;;26.42;17.92;;;;;;;16.10;62.07;101461.66;5076753;28;20162;-75
2023/03/29 11:32:02;;;;;;;27.95;18.20;;;;;;;15.70;62.91;101461.63;5072285;28;20068;-76
2023/03/29 11:35:04;;;;;;;29.42;17.70;;;;;;;16.00;61.67;101460.78;4981513;28;20206;-75
2023/03/29 11:37:52;;;;;;;26.40;16.80;;;;;;;15.88;61.77;101458.13;5091414;28;20043;-74
2023/03/29 11:40:36;;;;;;;24.83;18.08;;;;;;;15.66;62.70;101453.72;5097856;28;20492;-76